Terminal Aerodrome Forecast
Issued by NWS King Salmon, AK

Home | Current Version | Previous Version | Text Only | Print | Product List | Glossary On
Versions: 1 2 3 4 5 6 7 8 9 10 11 12 13 14 15 16 17 18 19 20 21 22 23 24 25 26 27 28 29 30 31 32 33 34 35 36 37 38 39 40
000
FTAK31 PANC 190806 AAB
TAFAKN
TAF AMD
PAKN 190806Z 1908/2006 16011KT 2SM -RA SCT003 BKN008 OVC015
     FM191200 27015G25KT 3SM -SN BR SCT003 BKN008 OVC015
     FM191900 30010G20KT 5SM -SHSN BR SCT008 BKN015 OVC025
     FM200100 33008KT P6SM VCSH SCT025 BKN060 OVC100=

USA.gov is the U.S. government's official web portal to all federal, state and local government web resources and services.